sensor_id;sensor_type;location;lat;lon;timestamp;pressure;altitude;pressure_sealevel;temperature;humidity
59971;BME280;45825;45.434;9.116;2024-02-16T00:01:14;100893.63;;;9.83;100.00
59971;BME280;45825;45.434;9.116;2024-02-16T00:03:39;100889.28;;;9.82;100.00
59971;BME280;45825;45.434;9.116;2024-02-16T00:06:05;100893.91;;;9.77;100.00
59971;BME280;45825;45.434;9.116;2024-02-16T00:08:31;100890.59;;;9.72;100.00
59971;BME280;45825;45.434;9.116;2024-02-16T00:10:56;100893.22;;;9.72;100.00
59971;BME280;45825;45.434;9.116;2024-02-16T00:13:21;100893.38;;;9.69;100.00
59971;BME280;45825;45.434;9.116;2024-02-16T00:15:47;100883.59;;;9.72;100.00
59971;BME280;45825;45.434;9.116;2024-02-16T00:18:13;100883.59;;;9.72;100.00
59971;BME280;45825;45.434;9.116;2024-02-16T00:20:38;100881.19;;;9.66;100.00
59971;BME280;45825;45.434;9.116;2024-02-16T00:23:03;100877.53;;;9.70;100.00
59971;BME280;45825;45.434;9.116;2024-02-16T00:25:29;100881.88;;;9.71;100.00
59971;BME280;45825;45.434;9.116;2024-02-16T00:27:54;100880.09;;;9.72;100.00
59971;BME280;45825;45.434;9.116;2024-02-16T00:30:20;100870.44;;;9.72;100.00
59971;BME280;45825;45.434;9.116;2024-02-16T00:32:46;100876.66;;;9.70;100.00
59971;BME280;45825;45.434;9.116;2024-02-16T00:35:12;100880.09;;;9.72;100.00
59971;BME280;45825;45.434;9.116;2024-02-16T00:37:38;100878.75;;;9.61;100.00
59971;BME280;45825;45.434;9.116;2024-02-16T00:40:04;100877.97;;;9.59;100.00
59971;BME280;45825;45.434;9.116;2024-02-16T00:42:29;100878.03;;;9.58;100.00
59971;BME280;45825;45.434;9.116;2024-02-16T00:44:56;100880.66;;;9.58;100.00
59971;BME280;45825;45.434;9.116;2024-02-16T00:47:22;100882.44;;;9.57;100.00
59971;BME280;45825;45.434;9.116;2024-02-16T00:49:48;100882.63;;;9.53;100.00
59971;BME280;45825;45.434;9.116;2024-02-16T00:52:14;100883.28;;;9.58;100.00
59971;BME280;45825;45.434;9.116;2024-02-16T00:54:39;100875.69;;;9.52;100.00
59971;BME280;45825;45.434;9.116;2024-02-16T00:57:04;100879.09;;;9.54;100.00
59971;BME280;45825;45.434;9.116;2024-02-16T00:59:30;100878.22;;;9.53;100.00
59971;BME280;45825;45.434;9.116;2024-02-16T01:01:55;100877.91;;;9.61;100.00
59971;BME280;45825;45.434;9.116;2024-02-16T01:04:21;100874.81;;;9.51;100.00
59971;BME280;45825;45.434;9.116;2024-02-16T01:06:46;100874.06;;;9.47;100.00
59971;BME280;45825;45.434;9.116;2024-02-16T01:09:11;100866.50;;;9.40;100.00
59971;BME280;45825;45.434;9.116;2024-02-16T01:11:40;100866.47;;;9.41;100.00
59971;BME280;45825;45.434;9.116;2024-02-16T01:14:05;100878.28;;;9.52;100.00
59971;BME280;45825;45.434;9.116;2024-02-16T01:16:30;100869.50;;;9.53;100.00
59971;BME280;45825;45.434;9.116;2024-02-16T01:18:56;100873.69;;;9.57;100.00
59971;BME280;45825;45.434;9.116;2024-02-16T01:21:21;100874.06;;;9.47;100.00
59971;BME280;45825;45.434;9.116;2024-02-16T01:23:47;100870.34;;;9.53;100.00
59971;BME280;45825;45.434;9.116;2024-02-16T01:26:12;100873.97;;;9.50;100.00
59971;BME280;45825;45.434;9.116;2024-02-16T01:28:38;100871.63;;;9.43;100.00
59971;BME280;45825;45.434;9.116;2024-02-16T01:31:04;100869.47;;;9.32;100.00
59971;BME280;45825;45.434;9.116;2024-02-16T01:33:29;100865.84;;;9.34;100.00
59971;BME280;45825;45.434;9.116;2024-02-16T01:35:54;100869.31;;;9.35;100.00
59971;BME280;45825;45.434;9.116;2024-02-16T01:38:20;100864.16;;;9.33;100.00
59971;BME280;45825;45.434;9.116;2024-02-16T01:40:47;100868.66;;;9.30;100.00
59971;BME280;45825;45.434;9.116;2024-02-16T01:43:13;100865.13;;;9.31;100.00
59971;BME280;45825;45.434;9.116;2024-02-16T01:45:38;100862.53;;;9.29;100.00
59971;BME280;45825;45.434;9.116;2024-02-16T01:48:04;100864.34;;;9.29;100.00
59971;BME280;45825;45.434;9.116;2024-02-16T01:50:29;100864.34;;;9.29;100.00
59971;BME280;45825;45.434;9.116;2024-02-16T01:52:55;100871.22;;;9.31;100.00
59971;BME280;45825;45.434;9.116;2024-02-16T01:55:21;100863.47;;;9.28;100.00
59971;BME280;45825;45.434;9.116;2024-02-16T01:57:47;100853.03;;;9.27;100.00
59971;BME280;45825;45.434;9.116;2024-02-16T02:00:13;100859.88;;;9.31;100.00
59971;BME280;45825;45.434;9.116;2024-02-16T02:02:44;100862.44;;;9.32;100.00
59971;BME280;45825;45.434;9.116;2024-02-16T02:05:10;100861.09;;;9.22;100.00
59971;BME280;45825;45.434;9.116;2024-02-16T02:07:37;100853.28;;;9.20;100.00
59971;BME280;45825;45.434;9.116;2024-02-16T02:10:02;100849.88;;;9.18;100.00
59971;BME280;45825;45.434;9.116;2024-02-16T02:12:28;100840.56;;;9.09;100.00
59971;BME280;45825;45.434;9.116;2024-02-16T02:14:53;100845.41;;;9.20;100.00
59971;BME280;45825;45.434;9.116;2024-02-16T02:17:19;100836.28;;;9.29;100.00
59971;BME280;45825;45.434;9.116;2024-02-16T02:19:47;100837.72;;;9.16;100.00
59971;BME280;45825;45.434;9.116;2024-02-16T02:22:16;100831.66;;;9.14;100.00
59971;BME280;45825;45.434;9.116;2024-02-16T02:24:43;100835.22;;;9.13;100.00
59971;BME280;45825;45.434;9.116;2024-02-16T02:27:09;100822.94;;;9.13;100.00
59971;BME280;45825;45.434;9.116;2024-02-16T02:29:35;100830.00;;;9.11;100.00
59971;BME280;45825;45.434;9.116;2024-02-16T02:32:00;100824.81;;;9.09;100.00
59971;BME280;45825;45.434;9.116;2024-02-16T02:34:26;100814.22;;;9.13;100.00
59971;BME280;45825;45.434;9.116;2024-02-16T02:36:51;100815.22;;;9.08;100.00
59971;BME280;45825;45.434;9.116;2024-02-16T02:39:16;100809.34;;;9.03;100.00
59971;BME280;45825;45.434;9.116;2024-02-16T02:41:42;100806.84;;;9.00;100.00
59971;BME280;45825;45.434;9.116;2024-02-16T02:44:08;100802.97;;;9.09;100.00
59971;BME280;45825;45.434;9.116;2024-02-16T02:46:33;100802.78;;;9.14;100.00
59971;BME280;45825;45.434;9.116;2024-02-16T02:48:59;100797.84;;;9.06;100.00
59971;BME280;45825;45.434;9.116;2024-02-16T02:51:24;100787.59;;;9.00;100.00
59971;BME280;45825;45.434;9.116;2024-02-16T02:53:49;100789.28;;;9.01;100.00
59971;BME280;45825;45.434;9.116;2024-02-16T02:56:14;100798.66;;;9.08;100.00
59971;BME280;45825;45.434;9.116;2024-02-16T02:58:40;100799.63;;;9.05;100.00
59971;BME280;45825;45.434;9.116;2024-02-16T03:01:05;100790.34;;;8.97;100.00
59971;BME280;45825;45.434;9.116;2024-02-16T03:03:33;100791.56;;;8.88;100.00
59971;BME280;45825;45.434;9.116;2024-02-16T03:05:58;100790.03;;;8.82;100.00
59971;BME280;45825;45.434;9.116;2024-02-16T03:08:24;100797.63;;;8.90;100.00
59971;BME280;45825;45.434;9.116;2024-02-16T03:10:49;100793.22;;;8.90;100.00
59971;BME280;45825;45.434;9.116;2024-02-16T03:13:14;100783.06;;;8.81;100.00
59971;BME280;45825;45.434;9.116;2024-02-16T03:15:43;100782.56;;;8.73;100.00
59971;BME280;45825;45.434;9.116;2024-02-16T03:18:08;100790.91;;;8.83;100.00
59971;BME280;45825;45.434;9.116;2024-02-16T03:20:34;100791.13;;;8.99;100.00
59971;BME280;45825;45.434;9.116;2024-02-16T03:23:00;100785.69;;;9.03;100.00
59971;BME280;45825;45.434;9.116;2024-02-16T03:25:26;100776.34;;;8.96;100.00
59971;BME280;45825;45.434;9.116;2024-02-16T03:27:51;100778.97;;;8.96;100.00
59971;BME280;45825;45.434;9.116;2024-02-16T03:30:18;100785.16;;;8.95;100.00
59971;BME280;45825;45.434;9.116;2024-02-16T03:32:48;100779.72;;;9.00;100.00
59971;BME280;45825;45.434;9.116;2024-02-16T03:35:14;100783.88;;;9.05;100.00
59971;BME280;45825;45.434;9.116;2024-02-16T03:37:39;100793.75;;;8.99;100.00
59971;BME280;45825;45.434;9.116;2024-02-16T03:40:05;100791.97;;;8.99;100.00
59971;BME280;45825;45.434;9.116;2024-02-16T03:42:31;100793.06;;;8.93;100.00
59971;BME280;45825;45.434;9.116;2024-02-16T03:44:56;100796.09;;;8.84;100.00
59971;BME280;45825;45.434;9.116;2024-02-16T03:47:23;100795.47;;;8.77;100.00
59971;BME280;45825;45.434;9.116;2024-02-16T03:49:48;100805.34;;;8.71;100.00
59971;BME280;45825;45.434;9.116;2024-02-16T03:52:13;100793.03;;;8.73;100.00
59971;BME280;45825;45.434;9.116;2024-02-16T03:54:39;100788.69;;;8.72;100.00
59971;BME280;45825;45.434;9.116;2024-02-16T03:57:04;100785.97;;;8.75;100.00
59971;BME280;45825;45.434;9.116;2024-02-16T03:59:34;100793.66;;;8.79;100.00
59971;BME280;45825;45.434;9.116;2024-02-16T04:01:59;100793.34;;;8.87;100.00
59971;BME280;45825;45.434;9.116;2024-02-16T04:04:25;100797.81;;;8.85;100.00
59971;BME280;45825;45.434;9.116;2024-02-16T04:06:52;100801.56;;;8.78;100.00
59971;BME280;45825;45.434;9.116;2024-02-16T04:09:17;100798.78;;;8.83;100.00
59971;BME280;45825;45.434;9.116;2024-02-16T04:11:42;100790.22;;;8.77;100.00
59971;BME280;45825;45.434;9.116;2024-02-16T04:14:08;100800.53;;;8.82;100.00
59971;BME280;45825;45.434;9.116;2024-02-16T04:16:33;100800.53;;;8.82;100.00
59971;BME280;45825;45.434;9.116;2024-02-16T04:18:58;100804.25;;;8.99;100.00
59971;BME280;45825;45.434;9.116;2024-02-16T04:21:24;100804.25;;;8.99;100.00
59971;BME280;45825;45.434;9.116;2024-02-16T04:23:49;100799.16;;;8.96;100.00
59971;BME280;45825;45.434;9.116;2024-02-16T04:26:15;100802.00;;;8.89;100.00
59971;BME280;45825;45.434;9.116;2024-02-16T04:28:40;100803.78;;;8.89;100.00
59971;BME280;45825;45.434;9.116;2024-02-16T04:31:05;100798.72;;;8.84;100.00
59971;BME280;45825;45.434;9.116;2024-02-16T04:33:31;100799.06;;;8.75;100.00
59971;BME280;45825;45.434;9.116;2024-02-16T04:35:56;100804.31;;;8.75;100.00
59971;BME280;45825;45.434;9.116;2024-02-16T04:38:22;100795.47;;;8.77;100.00
59971;BME280;45825;45.434;9.116;2024-02-16T04:40:47;100796.19;;;8.81;100.00
59971;BME280;45825;45.434;9.116;2024-02-16T04:43:12;100795.41;;;8.79;100.00
59971;BME280;45825;45.434;9.116;2024-02-16T04:45:38;100793.75;;;8.76;100.00
59971;BME280;45825;45.434;9.116;2024-02-16T04:48:04;100795.41;;;8.79;100.00
59971;BME280;45825;45.434;9.116;2024-02-16T04:50:31;100789.31;;;8.78;100.00
59971;BME280;45825;45.434;9.116;2024-02-16T04:52:56;100784.91;;;8.79;100.00
59971;BME280;45825;45.434;9.116;2024-02-16T04:55:22;100793.56;;;8.81;100.00
59971;BME280;45825;45.434;9.116;2024-02-16T04:57:47;100790.94;;;8.81;100.00
59971;BME280;45825;45.434;9.116;2024-02-16T05:00:13;100785.97;;;8.75;100.00
59971;BME280;45825;45.434;9.116;2024-02-16T05:02:39;100789.38;;;8.77;100.00
59971;BME280;45825;45.434;9.116;2024-02-16T05:05:04;100791.94;;;8.78;100.00
59971;BME280;45825;45.434;9.116;2024-02-16T05:07:29;100780.53;;;8.79;100.00
59971;BME280;45825;45.434;9.116;2024-02-16T05:09:56;100789.09;;;8.83;100.00
59971;BME280;45825;45.434;9.116;2024-02-16T05:12:23;100782.97;;;8.84;100.00
59971;BME280;45825;45.434;9.116;2024-02-16T05:14:52;100788.88;;;8.89;100.00
59971;BME280;45825;45.434;9.116;2024-02-16T05:17:18;100780.44;;;8.81;100.00
59971;BME280;45825;45.434;9.116;2024-02-16T05:19:45;100783.75;;;8.86;100.00
59971;BME280;45825;45.434;9.116;2024-02-16T05:22:10;100780.16;;;8.89;100.00
59971;BME280;45825;45.434;9.116;2024-02-16T05:24:35;100783.81;;;8.85;100.00
59971;BME280;45825;45.434;9.116;2024-02-16T05:27:01;100783.59;;;8.91;100.00
59971;BME280;45825;45.434;9.116;2024-02-16T05:29:26;100786.31;;;8.88;100.00
59971;BME280;45825;45.434;9.116;2024-02-16T05:31:52;100782.78;;;8.89;100.00
59971;BME280;45825;45.434;9.116;2024-02-16T05:34:17;100778.69;;;8.82;100.00
59971;BME280;45825;45.434;9.116;2024-02-16T05:36:43;100776.06;;;8.82;100.00
59971;BME280;45825;45.434;9.116;2024-02-16T05:39:08;100781.31;;;8.82;100.00
59971;BME280;45825;45.434;9.116;2024-02-16T05:41:51;100784.72;;;8.84;100.00
59971;BME280;45825;45.434;9.116;2024-02-16T05:44:16;100781.13;;;8.86;100.00
59971;BME280;45825;45.434;9.116;2024-02-16T05:46:42;100787.41;;;8.82;100.00
59971;BME280;45825;45.434;9.116;2024-02-16T05:49:07;100787.22;;;8.87;100.00
59971;BME280;45825;45.434;9.116;2024-02-16T05:51:35;100788.03;;;8.89;100.00
59971;BME280;45825;45.434;9.116;2024-02-16T05:54:02;100793.53;;;8.83;100.00
59971;BME280;45825;45.434;9.116;2024-02-16T05:56:27;100780.44;;;8.81;100.00
59971;BME280;45825;45.434;9.116;2024-02-16T05:58:53;100789.75;;;8.90;100.00
59971;BME280;45825;45.434;9.116;2024-02-16T06:01:18;100788.09;;;8.87;100.00
59971;BME280;45825;45.434;9.116;2024-02-16T06:03:44;100781.94;;;8.88;100.00
59971;BME280;45825;45.434;9.116;2024-02-16T06:06:09;100790.41;;;8.95;100.00
59971;BME280;45825;45.434;9.116;2024-02-16T06:08:35;100780.34;;;8.84;100.00
59971;BME280;45825;45.434;9.116;2024-02-16T06:11:00;100784.19;;;8.75;100.00
59971;BME280;45825;45.434;9.116;2024-02-16T06:13:27;100789.38;;;8.77;100.00
59971;BME280;45825;45.434;9.116;2024-02-16T06:15:52;100785.78;;;8.79;100.00
59971;BME280;45825;45.434;9.116;2024-02-16T06:18:18;100791.63;;;8.86;100.00
59971;BME280;45825;45.434;9.116;2024-02-16T06:20:44;100784.13;;;8.77;100.00
59971;BME280;45825;45.434;9.116;2024-02-16T06:23:10;100783.38;;;8.73;100.00
59971;BME280;45825;45.434;9.116;2024-02-16T06:25:35;100787.06;;;8.69;100.00
59971;BME280;45825;45.434;9.116;2024-02-16T06:28:02;100796.19;;;8.81;100.00
59971;BME280;45825;45.434;9.116;2024-02-16T06:30:27;100801.22;;;8.87;100.00
59971;BME280;45825;45.434;9.116;2024-02-16T06:32:53;100799.56;;;8.85;100.00
59971;BME280;45825;45.434;9.116;2024-02-16T06:35:20;100798.22;;;8.74;100.00
59971;BME280;45825;45.434;9.116;2024-02-16T06:37:45;100803.06;;;8.85;100.00
59971;BME280;45825;45.434;9.116;2024-02-16T06:40:11;100802.22;;;8.83;100.00
59971;BME280;45825;45.434;9.116;2024-02-16T06:42:37;100804.84;;;8.83;100.00
59971;BME280;45825;45.434;9.116;2024-02-16T06:45:03;100810.75;;;8.90;100.00
59971;BME280;45825;45.434;9.116;2024-02-16T06:47:32;100810.75;;;8.90;100.00
59971;BME280;45825;45.434;9.116;2024-02-16T06:49:58;100813.72;;;8.80;100.00
59971;BME280;45825;45.434;9.116;2024-02-16T06:52:23;100813.22;;;8.71;100.00
59971;BME280;45825;45.434;9.116;2024-02-16T06:54:48;100826.53;;;8.88;100.00
59971;BME280;45825;45.434;9.116;2024-02-16T06:57:15;100832.66;;;8.89;100.00
59971;BME280;45825;45.434;9.116;2024-02-16T06:59:40;100835.69;;;8.78;100.00
59971;BME280;45825;45.434;9.116;2024-02-16T07:02:06;100833.84;;;8.58;100.00
59971;BME280;45825;45.434;9.116;2024-02-16T07:04:32;100835.13;;;8.46;100.00
59971;BME280;45825;45.434;9.116;2024-02-16T07:06:57;100841.22;;;8.46;100.00
59971;BME280;45825;45.434;9.116;2024-02-16T07:09:22;100842.03;;;8.48;100.00
59971;BME280;45825;45.434;9.116;2024-02-16T07:11:48;100851.47;;;8.54;100.00
59971;BME280;45825;45.434;9.116;2024-02-16T07:14:15;100841.59;;;8.61;100.00
59971;BME280;45825;45.434;9.116;2024-02-16T07:16:40;100848.41;;;8.65;100.00
59971;BME280;45825;45.434;9.116;2024-02-16T07:19:06;100844.66;;;8.72;100.00
59971;BME280;45825;45.434;9.116;2024-02-16T07:21:31;100854.09;;;8.76;100.00
59971;BME280;45825;45.434;9.116;2024-02-16T07:23:57;100843.56;;;8.78;100.00
59971;BME280;45825;45.434;9.116;2024-02-16T07:26:22;100842.94;;;8.93;100.00
59971;BME280;45825;45.434;9.116;2024-02-16T07:28:48;100839.03;;;9.04;100.00
59971;BME280;45825;45.434;9.116;2024-02-16T07:31:13;100837.91;;;9.11;100.00
59971;BME280;45825;45.434;9.116;2024-02-16T07:33:39;100840.94;;;9.22;100.00
59971;BME280;45825;45.434;9.116;2024-02-16T07:36:05;100842.72;;;9.22;100.00
59971;BME280;45825;45.434;9.116;2024-02-16T07:38:31;100839.78;;;9.30;100.00
59971;BME280;45825;45.434;9.116;2024-02-16T07:40:56;100836.88;;;9.36;100.00
59971;BME280;45825;45.434;9.116;2024-02-16T07:43:22;100846.56;;;9.35;100.00
59971;BME280;45825;45.434;9.116;2024-02-16T07:45:49;100855.59;;;9.28;100.00
59971;BME280;45825;45.434;9.116;2024-02-16T07:48:14;100850.59;;;9.22;100.00
59971;BME280;45825;45.434;9.116;2024-02-16T07:50:40;100846.00;;;9.27;100.00
59971;BME280;45825;45.434;9.116;2024-02-16T07:53:06;100851.50;;;9.21;100.00
59971;BME280;45825;45.434;9.116;2024-02-16T07:55:31;100851.81;;;9.13;100.00
59971;BME280;45825;45.434;9.116;2024-02-16T07:57:57;100856.75;;;9.21;100.00
59971;BME280;45825;45.434;9.116;2024-02-16T08:00:22;100848.59;;;9.29;100.00
59971;BME280;45825;45.434;9.116;2024-02-16T08:02:48;100850.72;;;9.19;100.00
59971;BME280;45825;45.434;9.116;2024-02-16T08:05:13;100858.41;;;9.23;100.00
59971;BME280;45825;45.434;9.116;2024-02-16T08:07:40;100854.06;;;9.22;100.00
59971;BME280;45825;45.434;9.116;2024-02-16T08:10:09;100852.19;;;9.26;100.00
59971;BME280;45825;45.434;9.116;2024-02-16T08:12:34;100852.91;;;9.30;100.00
59971;BME280;45825;45.434;9.116;2024-02-16T08:15:01;100851.84;;;9.34;100.00
59971;BME280;45825;45.434;9.116;2024-02-16T08:17:26;100845.69;;;9.35;100.00
59971;BME280;45825;45.434;9.116;2024-02-16T08:19:53;100846.59;;;9.34;100.00
59971;BME280;45825;45.434;9.116;2024-02-16T08:22:19;100843.19;;;9.32;100.00
59971;BME280;45825;45.434;9.116;2024-02-16T08:24:45;100843.78;;;9.39;100.00
59971;BME280;45825;45.434;9.116;2024-02-16T08:27:11;100843.75;;;9.40;100.00
59971;BME280;45825;45.434;9.116;2024-02-16T08:29:38;100851.88;;;9.55;100.00
59971;BME280;45825;45.434;9.116;2024-02-16T08:32:03;100852.69;;;9.57;100.00
59971;BME280;45825;45.434;9.116;2024-02-16T08:34:30;100849.41;;;9.72;100.00
59971;BME280;45825;45.434;9.116;2024-02-16T08:36:56;100845.09;;;9.71;100.00
59971;BME280;45825;45.434;9.116;2024-02-16T08:39:22;100850.16;;;9.76;100.00
59971;BME280;45825;45.434;9.116;2024-02-16T08:41:52;100852.97;;;9.71;100.00
59971;BME280;45825;45.434;9.116;2024-02-16T08:44:18;100856.28;;;9.75;100.00
59971;BME280;45825;45.434;9.116;2024-02-16T08:46:44;100858.41;;;9.87;100.00
59971;BME280;45825;45.434;9.116;2024-02-16T08:49:09;100859.00;;;9.94;100.00
59971;BME280;45825;45.434;9.116;2024-02-16T08:51:35;100858.66;;;10.02;100.00
59971;BME280;45825;45.434;9.116;2024-02-16T08:54:01;100853.59;;;9.97;100.00
59971;BME280;45825;45.434;9.116;2024-02-16T08:56:29;100856.88;;;10.02;100.00
59971;BME280;45825;45.434;9.116;2024-02-16T08:58:55;100861.25;;;10.03;100.00
59971;BME280;45825;45.434;9.116;2024-02-16T09:01:31;100862.84;;;10.06;100.00
59971;BME280;45825;45.434;9.116;2024-02-16T09:03:56;100864.25;;;10.15;100.00
59971;BME280;45825;45.434;9.116;2024-02-16T09:06:21;100864.63;;;10.26;100.00
59971;BME280;45825;45.434;9.116;2024-02-16T09:08:47;100857.66;;;10.25;100.00
59971;BME280;45825;45.434;9.116;2024-02-16T09:11:12;100866.53;;;10.23;100.00
59971;BME280;45825;45.434;9.116;2024-02-16T09:13:39;100859.78;;;10.36;100.00
59971;BME280;45825;45.434;9.116;2024-02-16T09:16:05;100871.09;;;10.38;100.00
59971;BME280;45825;45.434;9.116;2024-02-16T09:18:31;100880.91;;;10.34;100.00
59971;BME280;45825;45.434;9.116;2024-02-16T09:20:56;100876.66;;;10.32;100.00
59971;BME280;45825;45.434;9.116;2024-02-16T09:23:22;100877.91;;;10.23;100.00
59971;BME280;45825;45.434;9.116;2024-02-16T09:25:47;100878.00;;;10.41;100.00
59971;BME280;45825;45.434;9.116;2024-02-16T09:28:13;100873.50;;;10.64;100.00
59971;BME280;45825;45.434;9.116;2024-02-16T09:30:39;100876.22;;;10.81;100.00
59971;BME280;45825;45.434;9.116;2024-02-16T09:33:04;100872.28;;;10.90;100.00
59971;BME280;45825;45.434;9.116;2024-02-16T09:35:30;100873.78;;;10.96;100.00
59971;BME280;45825;45.434;9.116;2024-02-16T09:37:56;100873.41;;;11.03;100.00
59971;BME280;45825;45.434;9.116;2024-02-16T09:40:22;100877.78;;;11.22;100.00
59971;BME280;45825;45.434;9.116;2024-02-16T09:42:48;100875.03;;;11.43;100.00
59971;BME280;45825;45.434;9.116;2024-02-16T09:45:17;100887.44;;;11.58;100.00
59971;BME280;45825;45.434;9.116;2024-02-16T09:47:43;100880.56;;;11.56;100.00
59971;BME280;45825;45.434;9.116;2024-02-16T09:50:10;100876.84;;;11.60;100.00
59971;BME280;45825;45.434;9.116;2024-02-16T09:52:36;100880.47;;;11.57;100.00
59971;BME280;45825;45.434;9.116;2024-02-16T09:55:05;100886.44;;;11.61;100.00
59971;BME280;45825;45.434;9.116;2024-02-16T09:57:32;100887.00;;;11.68;100.00
59971;BME280;45825;45.434;9.116;2024-02-16T09:59:58;100882.34;;;11.73;100.00
59971;BME280;45825;45.434;9.116;2024-02-16T10:02:24;100888.41;;;11.75;100.00
59971;BME280;45825;45.434;9.116;2024-02-16T10:04:49;100882.44;;;11.89;100.00
59971;BME280;45825;45.434;9.116;2024-02-16T10:07:15;100885.16;;;12.05;100.00
59971;BME280;45825;45.434;9.116;2024-02-16T10:09:40;100884.28;;;12.22;100.00
59971;BME280;45825;45.434;9.116;2024-02-16T10:12:06;100886.97;;;12.38;100.00
59971;BME280;45825;45.434;9.116;2024-02-16T10:14:32;100888.13;;;12.33;100.00
59971;BME280;45825;45.434;9.116;2024-02-16T10:17:05;100892.97;;;12.24;100.00
59971;BME280;45825;45.434;9.116;2024-02-16T10:19:32;100888.41;;;11.93;100.00
59971;BME280;45825;45.434;9.116;2024-02-16T10:24:33;100888.22;;;12.13;100.00
59971;BME280;45825;45.434;9.116;2024-02-16T10:26:58;100885.53;;;12.15;100.00
59971;BME280;45825;45.434;9.116;2024-02-16T10:29:24;100890.88;;;12.13;100.00
59971;BME280;45825;45.434;9.116;2024-02-16T10:31:52;100893.44;;;12.15;100.00
59971;BME280;45825;45.434;9.116;2024-02-16T10:34:17;100892.03;;;12.25;100.00
59971;BME280;45825;45.434;9.116;2024-02-16T10:36:43;100891.31;;;12.39;100.00
59971;BME280;45825;45.434;9.116;2024-02-16T10:39:10;100889.06;;;12.32;100.00
59971;BME280;45825;45.434;9.116;2024-02-16T10:41:41;100891.19;;;12.25;100.00
59971;BME280;45825;45.434;9.116;2024-02-16T10:44:07;100889.03;;;12.15;100.00
59971;BME280;45825;45.434;9.116;2024-02-16T10:46:33;100889.31;;;12.27;100.00
59971;BME280;45825;45.434;9.116;2024-02-16T10:48:59;100891.03;;;12.28;100.00
59971;BME280;45825;45.434;9.116;2024-02-16T10:54:01;100889.47;;;12.24;100.00
59971;BME280;45825;45.434;9.116;2024-02-16T10:59:01;100888.00;;;12.00;100.00
59971;BME280;45825;45.434;9.116;2024-02-16T11:01:27;100886.59;;;11.76;100.00
59971;BME280;45825;45.434;9.116;2024-02-16T11:04:00;100877.31;;;11.68;100.00
59971;BME280;45825;45.434;9.116;2024-02-16T11:06:27;100877.00;;;11.74;100.00
59971;BME280;45825;45.434;9.116;2024-02-16T11:08:52;100877.38;;;11.84;100.00
59971;BME280;45825;45.434;9.116;2024-02-16T11:11:24;100872.72;;;11.90;100.00
59971;BME280;45825;45.434;9.116;2024-02-16T11:13:49;100871.66;;;11.94;100.00
59971;BME280;45825;45.434;9.116;2024-02-16T11:16:17;100867.84;;;11.99;100.00
59971;BME280;45825;45.434;9.116;2024-02-16T11:18:43;100864.81;;;12.07;100.00
59971;BME280;45825;45.434;9.116;2024-02-16T11:21:12;100852.09;;;12.15;100.00
59971;BME280;45825;45.434;9.116;2024-02-16T11:23:39;100853.94;;;12.13;100.00
59971;BME280;45825;45.434;9.116;2024-02-16T11:26:05;100852.66;;;12.05;100.00
59971;BME280;45825;45.434;9.116;2024-02-16T11:28:36;100844.94;;;12.00;100.00
59971;BME280;45825;45.434;9.116;2024-02-16T11:31:02;100832.44;;;12.21;100.00
59971;BME280;45825;45.434;9.116;2024-02-16T11:33:28;100838.09;;;12.47;100.00
59971;BME280;45825;45.434;9.116;2024-02-16T11:35:58;100839.91;;;12.79;100.00
59971;BME280;45825;45.434;9.116;2024-02-16T11:38:25;100830.16;;;13.42;100.00
59971;BME280;45825;45.434;9.116;2024-02-16T11:40:58;100830.56;;;13.81;100.00
59971;BME280;45825;45.434;9.116;2024-02-16T11:43:25;100828.75;;;14.69;100.00
59971;BME280;45825;45.434;9.116;2024-02-16T11:45:51;100824.81;;;15.16;98.16
59971;BME280;45825;45.434;9.116;2024-02-16T11:48:23;100829.09;;;15.19;94.18
59971;BME280;45825;45.434;9.116;2024-02-16T11:50:49;100826.53;;;14.90;96.21
59971;BME280;45825;45.434;9.116;2024-02-16T11:53:18;100828.50;;;14.59;99.59
59971;BME280;45825;45.434;9.116;2024-02-16T11:55:48;100830.97;;;14.33;98.06
59971;BME280;45825;45.434;9.116;2024-02-16T11:58:18;100823.16;;;13.88;100.00
59971;BME280;45825;45.434;9.116;2024-02-16T12:00:47;100827.78;;;13.53;100.00
59971;BME280;45825;45.434;9.116;2024-02-16T12:03:40;100825.44;;;13.17;100.00
59971;BME280;45825;45.434;9.116;2024-02-16T12:06:06;100827.03;;;12.89;100.00
59971;BME280;45825;45.434;9.116;2024-02-16T12:08:33;100830.69;;;12.70;100.00
59971;BME280;45825;45.434;9.116;2024-02-16T12:10:59;100820.25;;;13.31;100.00
59971;BME280;45825;45.434;9.116;2024-02-16T12:13:24;100820.44;;;13.28;100.00
59971;BME280;45825;45.434;9.116;2024-02-16T12:15:51;100811.16;;;13.21;100.00
59971;BME280;45825;45.434;9.116;2024-02-16T12:18:26;100814.75;;;13.04;100.00
59971;BME280;45825;45.434;9.116;2024-02-16T12:21:03;100811.59;;;13.13;100.00
59971;BME280;45825;45.434;9.116;2024-02-16T12:23:29;100804.56;;;13.28;100.00
59971;BME280;45825;45.434;9.116;2024-02-16T12:25:58;100796.88;;;13.39;100.00
59971;BME280;45825;45.434;9.116;2024-02-16T12:28:26;100799.66;;;13.36;100.00
59971;BME280;45825;45.434;9.116;2024-02-16T12:30:53;100801.25;;;13.24;100.00
59971;BME280;45825;45.434;9.116;2024-02-16T12:33:18;100804.97;;;12.90;100.00
59971;BME280;45825;45.434;9.116;2024-02-16T12:35:43;100811.72;;;12.79;100.00
59971;BME280;45825;45.434;9.116;2024-02-16T12:38:10;100812.47;;;12.81;100.00
59971;BME280;45825;45.434;9.116;2024-02-16T12:40:36;100795.03;;;12.79;100.00
59971;BME280;45825;45.434;9.116;2024-02-16T12:43:01;100804.53;;;12.81;100.00
59971;BME280;45825;45.434;9.116;2024-02-16T12:45:26;100800.91;;;12.68;100.00
59971;BME280;45825;45.434;9.116;2024-02-16T12:47:52;100800.66;;;12.73;100.00
59971;BME280;45825;45.434;9.116;2024-02-16T12:50:17;100803.34;;;12.55;100.00